createdAt,value
2022-12-06T00:00:15.305Z,100485.44
2022-12-06T00:03:04.001Z,100490.16
2022-12-06T00:05:52.720Z,100481.53
2022-12-06T00:08:41.654Z,100486.47
2022-12-06T00:11:32.352Z,100474.34
2022-12-06T00:14:22.791Z,100478.84
2022-12-06T00:17:11.369Z,100485.22
2022-12-06T00:20:00.192Z,100485.22
2022-12-06T00:22:49.260Z,100495.88
2022-12-06T00:25:37.912Z,100484.38
2022-12-06T00:28:26.852Z,100495.41
2022-12-06T00:31:18.332Z,100495.22
2022-12-06T00:34:07.464Z,100494.41
2022-12-06T00:36:56.121Z,100503.22
2022-12-06T00:39:44.813Z,100504.03
2022-12-06T00:42:33.661Z,100494.56
2022-12-06T00:45:22.353Z,100495.59
2022-12-06T00:48:12.347Z,100481.00
2022-12-06T00:51:00.991Z,100487.81
2022-12-06T00:53:49.999Z,100477.59
2022-12-06T00:56:39.014Z,100488.59
2022-12-06T00:59:28.426Z,100487.97
2022-12-06T01:02:17.131Z,100486.97
2022-12-06T01:05:07.757Z,100487.59
2022-12-06T01:07:56.617Z,100495.78
2022-12-06T01:10:53.314Z,100487.59
2022-12-06T01:13:41.938Z,100499.28
2022-12-06T01:16:32.261Z,100493.50
2022-12-06T01:19:20.943Z,100490.47
2022-12-06T01:22:10.889Z,100490.47
2022-12-06T01:24:59.798Z,100482.25
2022-12-06T01:27:48.357Z,100475.28
2022-12-06T01:30:37.030Z,100468.94
2022-12-06T01:33:26.461Z,100460.06
2022-12-06T01:36:19.390Z,100453.53
2022-12-06T01:39:10.847Z,100448.38
2022-12-06T01:41:59.726Z,100447.38
2022-12-06T01:44:49.585Z,100444.47
2022-12-06T01:47:41.269Z,100442.78
2022-12-06T01:50:33.004Z,100438.13
2022-12-06T01:53:25.661Z,100439.56
2022-12-06T01:56:16.289Z,100436.09
2022-12-06T01:59:06.377Z,100430.53
2022-12-06T02:01:55.473Z,100432.00
2022-12-06T02:04:45.004Z,100423.22
2022-12-06T02:07:34.388Z,100415.41
2022-12-06T02:10:23.770Z,100412.72
2022-12-06T02:13:14.059Z,100409.44
2022-12-06T02:16:10.434Z,100403.47
2022-12-06T02:19:02.733Z,100398.16
2022-12-06T02:21:58.470Z,100396.09
2022-12-06T02:25:00.291Z,100389.50
2022-12-06T02:27:59.697Z,100397.69
2022-12-06T02:30:53.019Z,100383.81
2022-12-06T02:33:47.652Z,100385.00
2022-12-06T02:36:42.183Z,100386.81
2022-12-06T02:39:35.684Z,100385.84
2022-12-06T02:42:25.812Z,100383.53
2022-12-06T02:45:17.599Z,100377.41
2022-12-06T02:48:10.600Z,100380.50
2022-12-06T02:51:01.511Z,100379.22
2022-12-06T02:53:53.225Z,100370.22
2022-12-06T02:56:41.841Z,100375.53
2022-12-06T02:59:30.678Z,100368.78
2022-12-06T03:02:19.416Z,100371.84
2022-12-06T03:05:16.046Z,100366.13
2022-12-06T03:08:11.601Z,100360.34
2022-12-06T03:11:02.537Z,100366.13
2022-12-06T03:13:56.819Z,100366.47
2022-12-06T03:16:50.049Z,100373.50
2022-12-06T03:19:38.878Z,100371.44
2022-12-06T03:22:39.625Z,100363.63
2022-12-06T03:25:29.075Z,100368.94
2022-12-06T03:28:18.995Z,100366.69
2022-12-06T03:31:11.191Z,100367.94
2022-12-06T03:34:02.155Z,100367.94
2022-12-06T03:36:52.099Z,100365.28
2022-12-06T03:39:45.280Z,100360.41
2022-12-06T03:42:34.442Z,100354.63
2022-12-06T03:45:24.271Z,100346.44
2022-12-06T03:48:14.782Z,100347.25
2022-12-06T03:51:06.072Z,100345.59
2022-12-06T03:53:56.098Z,100345.44
2022-12-06T03:56:46.219Z,100341.91
2022-12-06T03:59:34.887Z,100342.13
2022-12-06T04:02:23.584Z,100347.25
2022-12-06T04:05:12.693Z,100346.84
2022-12-06T04:08:01.343Z,100341.75
2022-12-06T04:10:50.017Z,100336.97
2022-12-06T04:13:40.863Z,100335.34
2022-12-06T04:16:47.042Z,100340.66
2022-12-06T04:19:35.829Z,100339.03
2022-12-06T04:22:42.301Z,100339.03
2022-12-06T04:25:31.065Z,100333.31
2022-12-06T04:28:37.549Z,100334.09
2022-12-06T04:31:45.618Z,100338.75
2022-12-06T04:34:51.914Z,100329.38
2022-12-06T04:37:58.072Z,100327.06
2022-12-06T04:40:49.200Z,100323.44
2022-12-06T04:43:42.728Z,100323.84
2022-12-06T04:46:33.159Z,100318.09
2022-12-06T04:49:21.854Z,100323.44
2022-12-06T04:52:11.229Z,100320.75
2022-12-06T04:54:59.797Z,100319.09
2022-12-06T04:57:48.512Z,100319.28
2022-12-06T05:00:37.251Z,100314.78
2022-12-06T05:03:27.406Z,100319.09
2022-12-06T05:06:16.117Z,100321.75
2022-12-06T05:09:05.041Z,100322.00
2022-12-06T05:11:53.672Z,100317.72
2022-12-06T05:14:42.470Z,100315.66
2022-12-06T05:17:31.057Z,100315.38
2022-12-06T05:20:21.241Z,100315.63
2022-12-06T05:23:09.933Z,100307.16
2022-12-06T05:26:01.803Z,100311.88
2022-12-06T05:28:50.816Z,100313.97
2022-12-06T05:31:39.455Z,100312.09
2022-12-06T05:34:28.402Z,100314.47
2022-12-06T05:37:18.526Z,100308.91
2022-12-06T05:40:08.464Z,100310.53
2022-12-06T05:42:57.111Z,100312.63
2022-12-06T05:45:46.066Z,100314.66
2022-12-06T05:48:35.001Z,100309.41
2022-12-06T05:51:23.642Z,100321.25
2022-12-06T05:54:14.355Z,100315.53
2022-12-06T05:57:03.097Z,100307.78
2022-12-06T05:59:51.756Z,100312.72
2022-12-06T06:02:40.436Z,100309.03
2022-12-06T06:05:29.090Z,100308.03
2022-12-06T06:08:18.143Z,100314.34
2022-12-06T06:11:08.362Z,100303.78
2022-12-06T06:13:57.093Z,100306.66
2022-12-06T06:16:45.836Z,100303.31
2022-12-06T06:19:34.736Z,100302.97
2022-12-06T06:22:24.495Z,100300.31
2022-12-06T06:25:13.318Z,100302.97
2022-12-06T06:28:03.312Z,100303.78
2022-12-06T06:30:52.358Z,100309.56
2022-12-06T06:33:41.101Z,100310.81
2022-12-06T06:36:29.720Z,100309.16
2022-12-06T06:39:18.401Z,100311.03
2022-12-06T06:42:07.542Z,100311.09
2022-12-06T06:44:57.550Z,100308.88
2022-12-06T06:47:46.617Z,100315.78
2022-12-06T06:50:35.489Z,100317.78
2022-12-06T06:53:25.157Z,100317.44
2022-12-06T06:56:13.835Z,100322.75
2022-12-06T06:59:02.661Z,100328.72
2022-12-06T07:01:52.960Z,100324.00
2022-12-06T07:04:42.339Z,100323.25
2022-12-06T07:07:31.584Z,100314.25
2022-12-06T07:10:20.456Z,100308.28
2022-12-06T07:13:09.107Z,100320.78
2022-12-06T07:15:58.368Z,100309.28
2022-12-06T07:18:48.634Z,100309.34
2022-12-06T07:21:37.483Z,100317.91
2022-12-06T07:24:26.208Z,100317.50
2022-12-06T07:27:15.008Z,100319.94
2022-12-06T07:30:03.890Z,100319.94
2022-12-06T07:32:52.814Z,100324.25
2022-12-06T07:36:10.753Z,100324.06
2022-12-06T07:38:53.550Z,100319.94
2022-12-06T07:41:59.913Z,100327.31
2022-12-06T07:45:05.540Z,100328.94
2022-12-06T07:47:54.270Z,100319.88
2022-12-06T07:50:44.326Z,100316.66
2022-12-06T07:53:33.027Z,100321.97
2022-12-06T07:56:21.649Z,100325.28
2022-12-06T07:59:10.597Z,100317.66
2022-12-06T08:01:59.304Z,100324.91
2022-12-06T08:04:48.568Z,100319.94
2022-12-06T08:07:38.849Z,100321.97
2022-12-06T08:10:27.673Z,100325.66
2022-12-06T08:13:16.400Z,100316.66
2022-12-06T08:16:07.393Z,100322.19
2022-12-06T08:18:57.794Z,100323.00
2022-12-06T08:21:46.693Z,100322.19
2022-12-06T08:24:36.714Z,100319.94
2022-12-06T08:27:25.407Z,100319.94
2022-12-06T08:30:14.357Z,100318.69
2022-12-06T08:33:03.097Z,100318.28
2022-12-06T08:35:52.043Z,100315.25
2022-12-06T08:38:41.083Z,100318.28
2022-12-06T08:41:48.832Z,100323.25
2022-12-06T08:44:37.521Z,100323.25
2022-12-06T08:47:26.125Z,100310.75
2022-12-06T08:50:14.730Z,100315.25
2022-12-06T08:53:03.374Z,100309.28
2022-12-06T08:56:02.252Z,100308.94
2022-12-06T08:58:54.303Z,100314.63
2022-12-06T09:01:43.131Z,100316.88
2022-12-06T09:04:32.084Z,100318.28
2022-12-06T09:07:23.011Z,100312.59
2022-12-06T09:10:12.530Z,100310.59
2022-12-06T09:13:01.223Z,100305.25
2022-12-06T09:15:51.325Z,100311.22
2022-12-06T09:18:40.182Z,100312.22
2022-12-06T09:21:30.572Z,100306.91
2022-12-06T09:24:22.124Z,100310.59
2022-12-06T09:27:10.873Z,100303.59
2022-12-06T09:30:00.386Z,100306.06
2022-12-06T09:32:50.731Z,100294.59
2022-12-06T09:35:39.514Z,100297.06
2022-12-06T09:38:29.936Z,100298.28
2022-12-06T09:41:38.693Z,100292.97
2022-12-06T09:44:43.529Z,100295.19
2022-12-06T09:47:39.996Z,100286.22
2022-12-06T09:50:39.482Z,100288.00
2022-12-06T09:53:35.459Z,100286.59
2022-12-06T09:56:27.453Z,100280.84
2022-12-06T09:59:21.788Z,100278.75
2022-12-06T10:02:25.422Z,100270.50
2022-12-06T10:05:26.921Z,100271.53
2022-12-06T10:08:26.536Z,100270.16
2022-12-06T10:11:21.155Z,100266.81
2022-12-06T10:14:17.943Z,100261.88
2022-12-06T10:17:12.545Z,100259.22
2022-12-06T10:20:07.470Z,100259.22
2022-12-06T10:23:02.823Z,100261.72
2022-12-06T10:25:57.712Z,100255.53
2022-12-06T10:28:48.253Z,100250.44
2022-12-06T10:31:45.076Z,100260.59
2022-12-06T10:34:49.042Z,100256.06
2022-12-06T10:37:44.124Z,100254.25
2022-12-06T10:40:38.913Z,100248.75
2022-12-06T10:43:35.472Z,100254.88
2022-12-06T10:46:45.914Z,100244.63
2022-12-06T10:49:43.882Z,100247.28
2022-12-06T10:52:38.393Z,100247.06
2022-12-06T10:55:31.370Z,100249.09
2022-12-06T10:58:28.892Z,100242.34
2022-12-06T11:01:21.467Z,100236.81
2022-12-06T11:04:14.087Z,100237.66
2022-12-06T11:07:07.544Z,100238.00
2022-12-06T11:09:58.081Z,100229.03
2022-12-06T11:12:47.559Z,100228.38
2022-12-06T11:15:37.959Z,100241.34
2022-12-06T11:18:29.668Z,100228.19
2022-12-06T11:21:26.431Z,100229.03
2022-12-06T11:24:18.246Z,100233.34
2022-12-06T11:27:12.727Z,100222.03
2022-12-06T11:30:01.951Z,100220.81
2022-12-06T11:32:52.342Z,100223.03
2022-12-06T11:35:42.712Z,100220.19
2022-12-06T11:38:33.507Z,100217.09
2022-12-06T11:41:24.527Z,100221.41
2022-12-06T11:44:15.898Z,100218.75
2022-12-06T11:47:04.952Z,100227.75
2022-12-06T11:49:56.152Z,100222.03
2022-12-06T11:52:51.432Z,100220.78
2022-12-06T11:55:43.266Z,100221.41
2022-12-06T11:58:36.172Z,100214.25
2022-12-06T12:01:39.528Z,100211.78
2022-12-06T12:04:37.590Z,100209.09
2022-12-06T12:07:26.906Z,100208.09
2022-12-06T12:10:29.822Z,100208.09
2022-12-06T12:13:41.557Z,100203.19
2022-12-06T12:16:31.774Z,100197.69
2022-12-06T12:19:33.219Z,100206.03
2022-12-06T12:22:27.065Z,100198.44
2022-12-06T12:25:28.631Z,100192.09
2022-12-06T12:28:26.458Z,100192.50
2022-12-06T12:31:20.288Z,100186.41
2022-12-06T12:34:16.192Z,100183.75
2022-12-06T12:37:06.468Z,100179.81
2022-12-06T12:39:55.811Z,100182.47
2022-12-06T12:42:47.943Z,100182.28
2022-12-06T12:45:36.655Z,100179.81
2022-12-06T12:48:26.665Z,100181.84
2022-12-06T12:51:24.753Z,100185.13
2022-12-06T12:54:22.399Z,100183.09
2022-12-06T12:57:15.059Z,100176.69
2022-12-06T13:00:05.996Z,100185.53
2022-12-06T13:02:57.367Z,100180.19
2022-12-06T13:05:47.718Z,100178.56
2022-12-06T13:08:38.031Z,100184.28
2022-12-06T13:11:26.875Z,100180.19
2022-12-06T13:14:19.492Z,100179.19
2022-12-06T13:17:12.314Z,100180.19
2022-12-06T13:20:02.217Z,100182.63
2022-12-06T13:22:53.007Z,100180.59
2022-12-06T13:25:41.903Z,100177.53
2022-12-06T13:28:33.606Z,100180.19
2022-12-06T13:31:24.579Z,100179.19
2022-12-06T13:34:22.616Z,100164.22
2022-12-06T13:37:30.882Z,100166.06
2022-12-06T13:40:54.369Z,100166.25
2022-12-06T13:43:51.986Z,100163.78
2022-12-06T13:46:40.655Z,100166.25
2022-12-06T13:49:48.795Z,100156.41
2022-12-06T13:53:02.340Z,100159.28
2022-12-06T13:56:02.176Z,100168.09
2022-12-06T13:58:53.990Z,100166.66
2022-12-06T14:01:44.301Z,100164.81
2022-12-06T14:04:38.857Z,100162.56
2022-12-06T14:07:34.376Z,100162.97
2022-12-06T14:10:23.307Z,100170.56
2022-12-06T14:13:17.727Z,100167.47
2022-12-06T14:16:07.887Z,100166.66
2022-12-06T14:18:56.737Z,100169.31
2022-12-06T14:21:53.910Z,100166.66
2022-12-06T14:24:44.277Z,100171.59
2022-12-06T14:27:34.310Z,100168.31
2022-12-06T14:30:26.143Z,100172.34
2022-12-06T14:33:20.601Z,100180.59
2022-12-06T14:36:18.102Z,100173.63
2022-12-06T14:39:13.459Z,100166.66
2022-12-06T14:42:21.372Z,100166.09
2022-12-06T14:45:15.575Z,100167.56
2022-12-06T14:48:05.299Z,100168.31
2022-12-06T14:50:54.105Z,100163.81
2022-12-06T14:53:43.971Z,100164.00
2022-12-06T14:56:37.819Z,100172.28
2022-12-06T15:02:35.954Z,100177.31
2022-12-06T15:05:33.769Z,100171.31
2022-12-06T15:08:34.030Z,100176.41
2022-12-06T15:11:49.586Z,100173.63
2022-12-06T15:14:50.560Z,100166.91
2022-12-06T15:17:39.327Z,100171.03
2022-12-06T15:20:28.125Z,100168.63
2022-12-06T15:23:38.360Z,100173.84
2022-12-06T15:26:27.036Z,100172.16
2022-12-06T15:29:15.783Z,100176.38
2022-12-06T15:32:05.757Z,100177.22
2022-12-06T15:34:54.395Z,100171.44
2022-12-06T15:37:48.772Z,100170.25
2022-12-06T15:40:39.402Z,100172.34
2022-12-06T15:43:31.652Z,100171.91
2022-12-06T15:46:24.015Z,100161.22
2022-12-06T15:49:17.272Z,100172.75
2022-12-06T15:52:06.395Z,100174.00
2022-12-06T15:54:55.109Z,100172.75
2022-12-06T15:57:43.700Z,100172.38
2022-12-06T16:00:32.518Z,100165.00
2022-12-06T16:03:21.307Z,100164.94
2022-12-06T16:06:14.588Z,100169.13
2022-12-06T16:09:03.295Z,100170.31
2022-12-06T16:11:51.884Z,100170.16
2022-12-06T16:14:40.727Z,100173.44
2022-12-06T16:17:29.291Z,100174.63
2022-12-06T16:20:36.405Z,100172.91
2022-12-06T16:26:54.519Z,100171.41
2022-12-06T16:29:43.201Z,100172.50
2022-12-06T16:32:33.140Z,100166.16
2022-12-06T16:35:21.708Z,100170.41
2022-12-06T16:38:14.764Z,100170.19
2022-12-06T16:41:08.891Z,100173.03
2022-12-06T16:43:57.716Z,100168.50
2022-12-06T16:46:46.879Z,100168.50
2022-12-06T16:49:50.864Z,100163.19
2022-12-06T16:52:39.637Z,100168.50
2022-12-06T16:55:28.335Z,100173.41
2022-12-06T16:58:18.444Z,100173.44
2022-12-06T17:01:20.535Z,100173.44
2022-12-06T17:04:11.038Z,100163.81
2022-12-06T17:06:59.645Z,100162.31
2022-12-06T17:09:51.119Z,100165.69
2022-12-06T17:12:39.790Z,100160.00
2022-12-06T17:15:29.810Z,100158.75
2022-12-06T17:18:18.535Z,100163.34
2022-12-06T17:21:08.115Z,100164.09
2022-12-06T17:23:58.589Z,100158.56
2022-12-06T17:26:47.542Z,100161.25
2022-12-06T17:29:36.513Z,100160.19
2022-12-06T17:32:26.494Z,100162.06
2022-12-06T17:35:15.366Z,100169.91
2022-12-06T17:38:03.888Z,100162.84
2022-12-06T17:40:52.911Z,100165.50
2022-12-06T17:43:40.439Z,100167.72
2022-12-06T17:46:29.664Z,100168.13
2022-12-06T17:49:21.240Z,100171.38
2022-12-06T17:52:09.919Z,100163.59
2022-12-06T17:55:04.548Z,100161.91
2022-12-06T17:57:53.582Z,100167.41
2022-12-06T18:00:42.209Z,100161.41
2022-12-06T18:03:31.181Z,100159.56
2022-12-06T18:06:21.915Z,100161.34
2022-12-06T18:09:14.620Z,100154.78
2022-12-06T18:12:03.264Z,100160.91
2022-12-06T18:14:51.855Z,100166.31
2022-12-06T18:17:40.610Z,100163.88
2022-12-06T18:20:29.156Z,100168.88
2022-12-06T18:23:19.606Z,100168.03
2022-12-06T18:26:11.572Z,100171.47
2022-12-06T18:29:01.408Z,100170.84
2022-12-06T18:31:50.657Z,100171.25
2022-12-06T18:34:39.965Z,100179.25
2022-12-06T18:37:28.552Z,100171.06
2022-12-06T18:40:18.757Z,100173.31
2022-12-06T18:43:09.761Z,100168.56
2022-12-06T18:46:01.909Z,100171.81
2022-12-06T18:48:52.577Z,100171.81
2022-12-06T18:51:41.344Z,100176.28
2022-12-06T18:54:29.980Z,100179.00
2022-12-06T18:57:20.396Z,100173.03
2022-12-06T19:00:10.189Z,100181.66
2022-12-06T19:03:01.539Z,100183.28
2022-12-06T19:06:05.190Z,100181.44
2022-12-06T19:08:54.986Z,100177.13
2022-12-06T19:11:45.698Z,100178.16
2022-12-06T19:14:35.857Z,100184.09
2022-12-06T19:17:24.462Z,100180.19
2022-12-06T19:20:13.726Z,100176.69
2022-12-06T19:23:02.523Z,100186.50
2022-12-06T19:25:51.094Z,100179.13
2022-12-06T19:28:41.639Z,100188.56
2022-12-06T19:31:31.586Z,100180.81
2022-12-06T19:34:21.434Z,100187.16
2022-12-06T19:37:10.168Z,100181.22
2022-12-06T19:39:59.031Z,100182.84
2022-12-06T19:43:05.271Z,100186.53
2022-12-06T19:45:53.958Z,100179.75
2022-12-06T19:48:44.106Z,100182.84
2022-12-06T19:51:32.881Z,100171.84
2022-12-06T19:54:23.196Z,100184.50
2022-12-06T19:57:11.908Z,100183.66
2022-12-06T20:00:00.779Z,100183.63
2022-12-06T20:02:49.700Z,100186.50
2022-12-06T20:05:39.657Z,100180.69
2022-12-06T20:08:28.337Z,100180.06
2022-12-06T20:11:37.090Z,100180.28
2022-12-06T20:14:26.178Z,100182.34
2022-12-06T20:17:16.824Z,100189.69
2022-12-06T20:20:06.558Z,100181.09
2022-12-06T20:22:56.520Z,100179.41
2022-12-06T20:25:45.184Z,100179.41
2022-12-06T20:28:33.787Z,100179.66
2022-12-06T20:31:23.994Z,100182.34
2022-12-06T20:34:15.486Z,100182.34
2022-12-06T20:37:05.740Z,100172.06
2022-12-06T20:39:55.730Z,100174.34
2022-12-06T20:42:45.806Z,100169.66
2022-12-06T20:45:34.436Z,100163.88
2022-12-06T20:48:23.022Z,100177.00
2022-12-06T20:51:13.488Z,100170.03
2022-12-06T20:54:04.710Z,100173.31
2022-12-06T20:56:54.729Z,100160.59
2022-12-06T20:59:43.315Z,100168.75
2022-12-06T21:02:31.965Z,100165.47
2022-12-06T21:05:20.639Z,100163.69
2022-12-06T21:08:09.602Z,100167.13
2022-12-06T21:14:09.044Z,100176.56
2022-12-06T21:16:57.590Z,100170.03
2022-12-06T21:19:46.180Z,100168.41
2022-12-06T21:22:34.732Z,100162.03
2022-12-06T21:25:23.361Z,100173.28
2022-12-06T21:28:12.003Z,100176.56
2022-12-06T21:31:02.068Z,100170.44
2022-12-06T21:33:50.723Z,100168.41
2022-12-06T21:36:39.296Z,100166.34
2022-12-06T21:39:27.972Z,100165.34
2022-12-06T21:42:17.450Z,100167.38
2022-12-06T21:45:06.702Z,100177.41
2022-12-06T21:47:56.620Z,100174.97
2022-12-06T21:50:45.263Z,100169.66
2022-12-06T21:53:34.089Z,100169.28
2022-12-06T21:56:23.531Z,100167.50
2022-12-06T21:59:12.184Z,100165.22
2022-12-06T22:02:00.760Z,100169.28
2022-12-06T22:04:50.814Z,100166.63
2022-12-06T22:07:39.501Z,100168.91
2022-12-06T22:10:28.418Z,100168.91
2022-12-06T22:13:16.956Z,100173.22
2022-12-06T22:16:08.244Z,100165.00
2022-12-06T22:18:56.933Z,100157.84
2022-12-06T22:21:47.697Z,100157.84
2022-12-06T22:24:36.586Z,100158.03
2022-12-06T22:27:25.234Z,100157.06
2022-12-06T22:30:14.387Z,100155.84
2022-12-06T22:33:03.083Z,100154.19
2022-12-06T22:35:51.725Z,100155.03
2022-12-06T22:38:41.780Z,100153.59
2022-12-06T22:41:31.002Z,100156.44
2022-12-06T22:44:19.653Z,100149.47
2022-12-06T22:47:08.497Z,100151.72
2022-12-06T22:49:57.122Z,100158.72
2022-12-06T22:52:45.680Z,100152.13
2022-12-06T22:55:35.809Z,100151.63
2022-12-06T22:58:24.445Z,100153.59
2022-12-06T23:01:16.507Z,100150.53
2022-12-06T23:04:07.561Z,100153.44
2022-12-06T23:06:56.218Z,100148.94
2022-12-06T23:09:44.977Z,100150.41
2022-12-06T23:12:37.254Z,100146.91
2022-12-06T23:15:25.993Z,100143.34
2022-12-06T23:18:14.612Z,100144.91
2022-12-06T23:21:05.764Z,100144.19
2022-12-06T23:23:55.456Z,100142.69
2022-12-06T23:26:45.505Z,100145.78
2022-12-06T23:29:35.547Z,100147.38
2022-12-06T23:32:24.211Z,100146.31
2022-12-06T23:35:12.941Z,100153.09
2022-12-06T23:38:01.703Z,100148.78
2022-12-06T23:40:50.684Z,100145.22
2022-12-06T23:43:39.717Z,100147.28
2022-12-06T23:46:31.338Z,100150.56
2022-12-06T23:49:21.403Z,100148.03
2022-12-06T23:52:10.047Z,100149.31
2022-12-06T23:54:59.545Z,100139.25
2022-12-06T23:57:48.164Z,100145.59
